Rockford, Washington
Current Conditions -  °F | °C
As of 9:53 AM on Thursday 23 Oct 2014 (Local Time) from KSFF Reporting Station
Overcast Overcast  
Wind Chill: 13°   Ceiling: 1800
Heat Index: 13°   Visibility: 10mi
Dew Point: 10°   Wind: 5mph
Humidity: 83%   Direction: 200°SSW
Pressure: 29.8"   Gusts: NA
Location:  47.45°N, 117.13°W
Report Text: KSFF 231653Z 20004KT 10SM BKN018 OVC038 13/10 A2980 RMK AO2 RAE31 SLP089 P0002 T01280100
Loading
Personal Weather Stations






























Interactive Weather Map
Tropical Storm Tracking
New forecast layout! Learn more

10-Day Weather Forecast

Advertisements
Track Severe Weather on mobile